Terminal Aerodrome Forecast
Issued by NWS

Home | Current Version | Previous Version | Graphics & Text | Print | Product List | Glossary On
Versions: 1 2 3 4 5 6 7 8 9 10 11 12 13 14 15 16 17 18 19 20 21 22 23 24 25
497
FTUS43 KABR 222204 AAA
TAFATY
TAF AMD
KATY 222204Z 2222/2318 29010KT 6SM BR OVC006
      TEMPO 2222/2224 3SM BR
     FM230400 29007KT P6SM OVC003
     FM231400 22005KT P6SM BKN003
     FM231700 19005KT P6SM BKN010=

USA.gov is the U.S. government's official web portal to all federal, state and local government web resources and services.